createdAt,value
2023-02-17T00:01:30.830Z,100.00
2023-02-17T00:03:59.883Z,100.00
2023-02-17T00:06:30.776Z,100.00
2023-02-17T00:09:00.129Z,100.00
2023-02-17T00:11:28.948Z,100.00
2023-02-17T00:13:57.144Z,100.00
2023-02-17T00:16:26.873Z,100.00
2023-02-17T00:19:00.205Z,100.00
2023-02-17T00:21:31.404Z,100.00
2023-02-17T00:24:00.432Z,100.00
2023-02-17T00:26:28.801Z,100.00
2023-02-17T00:28:58.470Z,100.00
2023-02-17T00:31:26.813Z,100.00
2023-02-17T00:33:56.076Z,100.00
2023-02-17T00:36:25.450Z,100.00
2023-02-17T00:38:56.543Z,100.00
2023-02-17T00:41:26.657Z,100.00
2023-02-17T00:43:54.640Z,100.00
2023-02-17T00:46:24.117Z,100.00
2023-02-17T00:48:53.804Z,100.00
2023-02-17T00:51:23.086Z,100.00
2023-02-17T00:53:51.793Z,100.00
2023-02-17T00:56:19.845Z,100.00
2023-02-17T00:58:47.830Z,100.00
2023-02-17T01:01:16.115Z,100.00
2023-02-17T01:03:44.154Z,100.00
2023-02-17T01:06:27.808Z,100.00
2023-02-17T01:08:56.037Z,100.00
2023-02-17T01:11:27.640Z,100.00
2023-02-17T01:14:01.498Z,100.00
2023-02-17T01:16:35.434Z,100.00
2023-02-17T01:19:06.024Z,100.00
2023-02-17T01:21:34.498Z,100.00
2023-02-17T01:24:05.825Z,100.00
2023-02-17T01:26:35.723Z,100.00
2023-02-17T01:29:04.447Z,100.00
2023-02-17T01:31:32.964Z,100.00
2023-02-17T01:34:03.492Z,100.00
2023-02-17T01:36:32.512Z,100.00
2023-02-17T01:39:00.964Z,100.00
2023-02-17T01:41:29.473Z,100.00
2023-02-17T01:44:08.013Z,100.00
2023-02-17T01:46:40.595Z,100.00
2023-02-17T01:49:41.684Z,100.00
2023-02-17T01:52:26.581Z,100.00
2023-02-17T01:55:06.199Z,100.00
2023-02-17T01:57:39.039Z,100.00
2023-02-17T02:00:10.446Z,100.00
2023-02-17T02:02:45.308Z,100.00
2023-02-17T02:05:16.413Z,100.00
2023-02-17T02:07:47.635Z,100.00
2023-02-17T02:10:17.400Z,100.00
2023-02-17T02:12:46.029Z,100.00
2023-02-17T02:15:20.764Z,100.00
2023-02-17T02:18:29.768Z,100.00
2023-02-17T02:21:16.099Z,100.00
2023-02-17T02:23:59.858Z,100.00
2023-02-17T02:26:37.044Z,100.00
2023-02-17T02:29:31.223Z,100.00
2023-02-17T02:32:17.608Z,100.00
2023-02-17T02:34:48.768Z,100.00
2023-02-17T02:37:44.149Z,100.00
2023-02-17T02:40:15.669Z,100.00
2023-02-17T02:42:46.246Z,100.00
2023-02-17T02:45:16.981Z,100.00
2023-02-17T02:47:47.474Z,100.00
2023-02-17T02:50:55.967Z,100.00
2023-02-17T02:53:56.083Z,100.00
2023-02-17T02:56:31.142Z,100.00
2023-02-17T02:59:20.409Z,100.00
2023-02-17T03:02:01.039Z,100.00
2023-02-17T03:04:36.762Z,100.00
2023-02-17T03:07:22.150Z,100.00
2023-02-17T03:10:00.391Z,100.00
2023-02-17T03:12:29.185Z,100.00
2023-02-17T03:15:05.008Z,100.00
2023-02-17T03:17:33.657Z,100.00
2023-02-17T03:20:03.749Z,100.00
2023-02-17T03:22:37.163Z,100.00
2023-02-17T03:25:05.538Z,100.00
2023-02-17T03:27:33.704Z,100.00
2023-02-17T03:30:01.977Z,100.00
2023-02-17T03:32:30.080Z,100.00
2023-02-17T03:34:57.984Z,100.00
2023-02-17T03:37:26.201Z,100.00
2023-02-17T03:39:54.607Z,100.00
2023-02-17T03:42:22.937Z,100.00
2023-02-17T03:44:50.970Z,100.00
2023-02-17T03:47:18.990Z,100.00
2023-02-17T03:49:46.760Z,100.00
2023-02-17T03:52:14.868Z,100.00
2023-02-17T03:54:42.947Z,100.00
2023-02-17T03:57:10.920Z,100.00
2023-02-17T03:59:38.856Z,100.00
2023-02-17T04:02:06.887Z,100.00
2023-02-17T04:04:36.319Z,100.00
2023-02-17T04:07:04.300Z,100.00
2023-02-17T04:09:32.172Z,100.00
2023-02-17T04:12:00.444Z,100.00
2023-02-17T04:14:28.382Z,100.00
2023-02-17T04:16:56.409Z,100.00
2023-02-17T04:19:24.665Z,100.00
2023-02-17T04:21:53.323Z,100.00
2023-02-17T04:24:21.406Z,100.00
2023-02-17T04:26:49.293Z,100.00
2023-02-17T04:29:17.179Z,100.00
2023-02-17T04:31:45.044Z,100.00
2023-02-17T04:34:12.988Z,100.00
2023-02-17T04:36:42.374Z,100.00
2023-02-17T04:39:11.585Z,100.00
2023-02-17T04:41:40.140Z,100.00
2023-02-17T04:44:08.045Z,100.00
2023-02-17T04:46:36.152Z,100.00
2023-02-17T04:49:04.082Z,100.00
2023-02-17T04:51:32.141Z,100.00
2023-02-17T04:53:59.968Z,100.00
2023-02-17T04:56:27.877Z,100.00
2023-02-17T04:58:55.710Z,100.00
2023-02-17T05:01:23.751Z,100.00
2023-02-17T05:03:51.569Z,100.00
2023-02-17T05:06:19.549Z,100.00
2023-02-17T05:08:48.378Z,100.00
2023-02-17T05:11:16.518Z,100.00
2023-02-17T05:13:44.717Z,100.00
2023-02-17T05:16:12.979Z,100.00
2023-02-17T05:18:41.077Z,100.00
2023-02-17T05:21:08.938Z,100.00
2023-02-17T05:23:41.284Z,100.00
2023-02-17T05:26:10.410Z,100.00
2023-02-17T05:28:38.899Z,100.00
2023-02-17T05:31:06.914Z,100.00
2023-02-17T05:33:34.985Z,100.00
2023-02-17T05:36:06.032Z,100.00
2023-02-17T05:38:36.054Z,100.00
2023-02-17T05:41:04.564Z,100.00
2023-02-17T05:43:32.916Z,100.00
2023-02-17T05:46:05.266Z,100.00
2023-02-17T05:48:33.837Z,100.00
2023-02-17T05:51:02.242Z,100.00
2023-02-17T05:53:30.624Z,100.00
2023-02-17T05:55:58.699Z,100.00
2023-02-17T05:58:27.559Z,100.00
2023-02-17T06:00:55.630Z,100.00
2023-02-17T06:03:23.738Z,100.00
2023-02-17T06:05:51.736Z,100.00
2023-02-17T06:08:19.714Z,100.00
2023-02-17T06:10:47.772Z,100.00
2023-02-17T06:13:15.671Z,100.00
2023-02-17T06:15:43.646Z,100.00
2023-02-17T06:18:11.464Z,100.00
2023-02-17T06:20:39.688Z,100.00
2023-02-17T06:23:07.794Z,100.00
2023-02-17T06:25:36.091Z,100.00
2023-02-17T06:28:04.799Z,100.00
2023-02-17T06:30:32.832Z,100.00
2023-02-17T06:33:00.825Z,100.00
2023-02-17T06:35:28.970Z,100.00
2023-02-17T06:37:57.085Z,100.00
2023-02-17T06:40:25.772Z,100.00
2023-02-17T06:42:54.639Z,100.00
2023-02-17T06:45:22.530Z,100.00
2023-02-17T06:47:50.298Z,100.00
2023-02-17T06:50:18.410Z,100.00
2023-02-17T06:52:46.232Z,100.00
2023-02-17T06:55:14.311Z,100.00
2023-02-17T06:57:42.224Z,100.00
2023-02-17T07:00:10.999Z,100.00
2023-02-17T07:02:39.844Z,100.00
2023-02-17T07:05:08.767Z,100.00
2023-02-17T07:07:36.787Z,100.00
2023-02-17T07:10:05.474Z,100.00
2023-02-17T07:12:33.496Z,100.00
2023-02-17T07:15:01.457Z,100.00
2023-02-17T07:17:29.374Z,100.00
2023-02-17T07:19:57.331Z,100.00
2023-02-17T07:22:26.788Z,100.00
2023-02-17T07:24:54.843Z,100.00
2023-02-17T07:27:22.725Z,100.00
2023-02-17T07:29:50.510Z,100.00
2023-02-17T07:32:18.576Z,100.00
2023-02-17T07:34:46.965Z,100.00
2023-02-17T07:37:14.936Z,100.00
2023-02-17T07:39:43.043Z,100.00
2023-02-17T07:42:11.678Z,100.00
2023-02-17T07:44:40.547Z,100.00
2023-02-17T07:47:08.445Z,100.00
2023-02-17T07:49:36.335Z,100.00
2023-02-17T07:52:05.404Z,100.00
2023-02-17T07:54:33.433Z,100.00
2023-02-17T07:57:01.481Z,100.00
2023-02-17T07:59:29.483Z,100.00
2023-02-17T08:01:57.481Z,100.00
2023-02-17T08:04:25.536Z,100.00
2023-02-17T08:06:53.566Z,100.00
2023-02-17T08:09:40.081Z,100.00
2023-02-17T08:12:34.541Z,100.00
2023-02-17T08:15:02.956Z,100.00
2023-02-17T08:17:30.884Z,100.00
2023-02-17T08:20:01.966Z,100.00
2023-02-17T08:22:32.016Z,100.00
2023-02-17T08:25:00.155Z,100.00
2023-02-17T08:27:28.208Z,100.00
2023-02-17T08:29:56.088Z,100.00
2023-02-17T08:32:24.132Z,100.00
2023-02-17T08:34:56.092Z,100.00
2023-02-17T08:37:24.227Z,100.00
2023-02-17T08:39:52.232Z,100.00
2023-02-17T08:42:20.218Z,100.00
2023-02-17T08:44:48.291Z,100.00
2023-02-17T08:47:16.141Z,100.00
2023-02-17T08:49:44.111Z,100.00
2023-02-17T08:52:12.020Z,100.00
2023-02-17T08:54:40.009Z,100.00
2023-02-17T08:57:08.019Z,100.00
2023-02-17T08:59:35.898Z,100.00
2023-02-17T09:02:04.127Z,100.00
2023-02-17T09:04:32.241Z,100.00
2023-02-17T09:07:00.403Z,100.00
2023-02-17T09:09:28.422Z,100.00
2023-02-17T09:11:58.177Z,100.00
2023-02-17T09:14:27.049Z,100.00
2023-02-17T09:16:56.260Z,100.00
2023-02-17T09:19:25.204Z,100.00
2023-02-17T09:21:53.972Z,100.00
2023-02-17T09:24:22.311Z,100.00
2023-02-17T09:26:50.261Z,100.00
2023-02-17T09:29:18.077Z,100.00
2023-02-17T09:31:46.271Z,100.00
2023-02-17T09:34:14.408Z,100.00
2023-02-17T09:36:42.969Z,100.00
2023-02-17T09:39:13.814Z,100.00
2023-02-17T09:41:47.823Z,100.00
2023-02-17T09:44:42.816Z,100.00
2023-02-17T09:47:17.004Z,100.00
2023-02-17T09:50:16.717Z,100.00
2023-02-17T09:52:56.365Z,100.00
2023-02-17T09:55:30.108Z,100.00
2023-02-17T09:58:16.253Z,100.00
2023-02-17T10:00:51.677Z,100.00
2023-02-17T10:03:42.858Z,100.00
2023-02-17T10:06:39.962Z,100.00
2023-02-17T10:09:13.210Z,100.00
2023-02-17T10:11:50.990Z,100.00
2023-02-17T10:14:29.222Z,100.00
2023-02-17T10:17:02.201Z,100.00
2023-02-17T10:19:34.765Z,100.00
2023-02-17T10:22:21.393Z,100.00
2023-02-17T10:24:49.716Z,100.00
2023-02-17T10:27:22.901Z,100.00
2023-02-17T10:30:25.769Z,100.00
2023-02-17T10:33:02.030Z,100.00
2023-02-17T10:35:50.519Z,100.00
2023-02-17T10:38:22.235Z,100.00
2023-02-17T10:40:51.701Z,100.00
2023-02-17T10:43:25.882Z,100.00
2023-02-17T10:45:54.944Z,100.00
2023-02-17T10:48:38.645Z,100.00
2023-02-17T10:51:07.021Z,100.00
2023-02-17T10:53:39.726Z,100.00
2023-02-17T10:56:21.961Z,100.00
2023-02-17T10:59:04.436Z,100.00
2023-02-17T11:01:33.546Z,100.00
2023-02-17T11:04:13.851Z,100.00
2023-02-17T11:06:49.139Z,100.00
2023-02-17T11:09:21.883Z,100.00
2023-02-17T11:12:04.054Z,100.00
2023-02-17T11:14:36.778Z,100.00
2023-02-17T11:17:42.900Z,100.00
2023-02-17T11:20:13.444Z,100.00
2023-02-17T11:22:45.879Z,100.00
2023-02-17T11:25:28.667Z,100.00
2023-02-17T11:28:02.169Z,100.00
2023-02-17T11:30:32.785Z,100.00
2023-02-17T11:33:14.786Z,100.00
2023-02-17T11:35:42.626Z,100.00
2023-02-17T11:38:14.317Z,100.00
2023-02-17T11:41:02.172Z,100.00
2023-02-17T11:43:33.038Z,100.00
2023-02-17T11:46:16.203Z,100.00
2023-02-17T11:49:21.991Z,100.00
2023-02-17T11:52:31.563Z,100.00
2023-02-17T11:55:37.150Z,100.00
2023-02-17T11:58:20.406Z,100.00
2023-02-17T12:01:08.097Z,100.00
2023-02-17T12:03:54.199Z,100.00
2023-02-17T12:06:40.553Z,100.00
2023-02-17T12:09:14.438Z,100.00
2023-02-17T12:11:48.556Z,100.00
2023-02-17T12:15:01.634Z,100.00
2023-02-17T12:17:45.966Z,100.00
2023-02-17T12:20:28.227Z,100.00
2023-02-17T12:23:17.786Z,100.00
2023-02-17T12:25:55.403Z,100.00
2023-02-17T12:28:48.840Z,100.00
2023-02-17T12:31:32.746Z,100.00
2023-02-17T12:34:22.047Z,100.00
2023-02-17T12:36:51.142Z,100.00
2023-02-17T12:39:24.981Z,100.00
2023-02-17T12:42:00.370Z,100.00
2023-02-17T12:44:33.630Z,100.00
2023-02-17T12:47:13.014Z,100.00
2023-02-17T12:49:51.496Z,100.00
2023-02-17T12:52:21.796Z,100.00
2023-02-17T12:54:49.787Z,100.00
2023-02-17T12:57:24.176Z,100.00
2023-02-17T12:59:53.488Z,100.00
2023-02-17T13:02:24.669Z,100.00
2023-02-17T13:04:55.228Z,100.00
2023-02-17T13:07:38.993Z,100.00
2023-02-17T13:10:18.559Z,100.00
2023-02-17T13:12:57.430Z,100.00
2023-02-17T13:15:32.118Z,100.00
2023-02-17T13:18:04.099Z,100.00
2023-02-17T13:20:45.780Z,100.00
2023-02-17T13:23:26.083Z,100.00
2023-02-17T13:26:31.913Z,100.00
2023-02-17T13:29:26.341Z,100.00
2023-02-17T13:31:57.409Z,100.00
2023-02-17T13:34:37.296Z,100.00
2023-02-17T13:37:25.368Z,100.00
2023-02-17T13:39:54.204Z,100.00
2023-02-17T13:42:44.231Z,100.00
2023-02-17T13:45:40.293Z,100.00
2023-02-17T13:48:29.325Z,100.00
2023-02-17T13:51:05.834Z,100.00
2023-02-17T13:53:37.819Z,100.00
2023-02-17T13:56:23.829Z,100.00
2023-02-17T13:58:51.821Z,100.00
2023-02-17T14:01:27.409Z,100.00
2023-02-17T14:03:56.465Z,100.00
2023-02-17T14:06:36.002Z,100.00
2023-02-17T14:09:22.056Z,100.00
2023-02-17T14:11:52.210Z,100.00
2023-02-17T14:14:23.869Z,100.00
2023-02-17T14:17:07.394Z,100.00
2023-02-17T14:19:46.517Z,100.00
2023-02-17T14:22:48.708Z,100.00
2023-02-17T14:25:28.633Z,100.00
2023-02-17T14:27:56.568Z,100.00
2023-02-17T14:30:30.625Z,100.00
2023-02-17T14:33:15.524Z,100.00
2023-02-17T14:36:11.547Z,100.00
2023-02-17T14:38:42.808Z,100.00
2023-02-17T14:41:10.874Z,100.00
2023-02-17T14:43:38.856Z,100.00
2023-02-17T14:46:07.156Z,100.00
2023-02-17T14:48:35.458Z,100.00
2023-02-17T14:51:03.464Z,100.00
2023-02-17T14:53:36.614Z,100.00
2023-02-17T14:56:21.126Z,100.00
2023-02-17T14:58:49.552Z,100.00
2023-02-17T15:01:19.082Z,100.00
2023-02-17T15:03:47.387Z,100.00
2023-02-17T15:06:19.191Z,100.00
2023-02-17T15:08:49.521Z,100.00
2023-02-17T15:11:30.362Z,100.00
2023-02-17T15:13:58.198Z,100.00
2023-02-17T15:16:26.457Z,100.00
2023-02-17T15:18:54.677Z,100.00
2023-02-17T15:21:33.032Z,100.00
2023-02-17T15:24:02.693Z,100.00
2023-02-17T15:26:31.130Z,100.00
2023-02-17T15:28:59.488Z,100.00
2023-02-17T15:31:32.307Z,100.00
2023-02-17T15:34:01.689Z,100.00
2023-02-17T15:36:29.504Z,100.00
2023-02-17T15:38:57.477Z,100.00
2023-02-17T15:41:29.813Z,100.00
2023-02-17T15:44:01.392Z,100.00
2023-02-17T15:46:33.430Z,100.00
2023-02-17T15:49:01.334Z,100.00
2023-02-17T15:51:29.339Z,100.00
2023-02-17T15:53:57.584Z,100.00
2023-02-17T15:56:30.027Z,100.00
2023-02-17T15:59:01.162Z,100.00
2023-02-17T16:01:32.368Z,100.00
2023-02-17T16:04:00.533Z,100.00
2023-02-17T16:06:29.235Z,100.00
2023-02-17T16:08:59.989Z,100.00
2023-02-17T16:11:28.592Z,100.00
2023-02-17T16:13:56.830Z,100.00
2023-02-17T16:16:29.714Z,100.00
2023-02-17T16:18:58.212Z,100.00
2023-02-17T16:21:26.895Z,100.00
2023-02-17T16:23:59.783Z,100.00
2023-02-17T16:26:36.737Z,100.00
2023-02-17T16:29:14.796Z,100.00
2023-02-17T16:31:43.599Z,100.00
2023-02-17T16:34:21.387Z,100.00
2023-02-17T16:36:53.171Z,100.00
2023-02-17T16:39:22.078Z,100.00
2023-02-17T16:41:50.227Z,100.00
2023-02-17T16:44:21.786Z,100.00
2023-02-17T16:46:57.091Z,100.00
2023-02-17T16:49:34.024Z,100.00
2023-02-17T16:52:05.452Z,100.00
2023-02-17T16:54:35.482Z,100.00
2023-02-17T16:57:03.954Z,100.00
2023-02-17T16:59:31.923Z,100.00
2023-02-17T17:01:59.812Z,100.00
2023-02-17T17:04:27.865Z,100.00
2023-02-17T17:06:55.628Z,100.00
2023-02-17T17:09:24.714Z,100.00
2023-02-17T17:11:52.763Z,100.00
2023-02-17T17:14:21.811Z,100.00
2023-02-17T17:16:57.454Z,100.00
2023-02-17T17:19:25.431Z,100.00
2023-02-17T17:21:53.350Z,100.00
2023-02-17T17:24:22.078Z,100.00
2023-02-17T17:26:51.540Z,100.00
2023-02-17T17:29:20.276Z,100.00
2023-02-17T17:31:48.470Z,100.00
2023-02-17T17:34:16.544Z,100.00
2023-02-17T17:36:46.729Z,100.00
2023-02-17T17:39:18.626Z,100.00
2023-02-17T17:41:47.435Z,100.00
2023-02-17T17:44:15.817Z,100.00
2023-02-17T17:46:44.256Z,100.00
2023-02-17T17:49:14.127Z,100.00
2023-02-17T17:51:42.260Z,100.00
2023-02-17T17:54:10.606Z,100.00
2023-02-17T17:56:45.018Z,100.00
2023-02-17T17:59:14.251Z,100.00
2023-02-17T18:01:45.117Z,100.00
2023-02-17T18:04:13.783Z,100.00
2023-02-17T18:06:47.136Z,100.00
2023-02-17T18:09:31.381Z,100.00
2023-02-17T18:12:07.042Z,100.00
2023-02-17T18:14:37.772Z,100.00
2023-02-17T18:17:08.429Z,100.00
2023-02-17T18:19:36.584Z,100.00
2023-02-17T18:22:04.612Z,100.00
2023-02-17T18:24:32.554Z,100.00
2023-02-17T18:27:00.629Z,100.00
2023-02-17T18:29:28.448Z,100.00
2023-02-17T18:31:57.807Z,100.00
2023-02-17T18:34:26.083Z,100.00
2023-02-17T18:36:54.233Z,100.00
2023-02-17T18:39:22.299Z,100.00
2023-02-17T18:41:50.261Z,100.00
2023-02-17T18:44:18.294Z,100.00
2023-02-17T18:46:46.308Z,100.00
2023-02-17T18:49:14.266Z,100.00
2023-02-17T18:51:42.221Z,100.00
2023-02-17T18:54:11.119Z,100.00
2023-02-17T18:56:39.288Z,100.00
2023-02-17T18:59:07.376Z,100.00
2023-02-17T19:01:39.645Z,100.00
2023-02-17T19:04:09.772Z,100.00
2023-02-17T19:06:37.918Z,100.00
2023-02-17T19:09:06.023Z,100.00
2023-02-17T19:11:34.851Z,100.00
2023-02-17T19:14:03.465Z,100.00
2023-02-17T19:16:32.550Z,100.00
2023-02-17T19:19:01.566Z,100.00
2023-02-17T19:21:29.965Z,100.00
2023-02-17T19:23:57.824Z,100.00
2023-02-17T19:26:25.809Z,100.00
2023-02-17T19:28:53.680Z,100.00
2023-02-17T19:31:21.827Z,100.00
2023-02-17T19:33:49.873Z,100.00
2023-02-17T19:36:21.096Z,100.00
2023-02-17T19:38:51.000Z,100.00
2023-02-17T19:41:19.414Z,100.00
2023-02-17T19:43:47.675Z,100.00
2023-02-17T19:46:18.312Z,100.00
2023-02-17T19:48:46.743Z,100.00
2023-02-17T19:51:15.022Z,100.00
2023-02-17T19:53:44.001Z,100.00
2023-02-17T19:56:23.729Z,100.00
2023-02-17T19:58:52.457Z,100.00
2023-02-17T20:01:23.568Z,100.00
2023-02-17T20:03:54.566Z,100.00
2023-02-17T20:06:31.013Z,100.00
2023-02-17T20:09:02.567Z,100.00
2023-02-17T20:11:32.279Z,100.00
2023-02-17T20:14:01.477Z,100.00
2023-02-17T20:16:30.580Z,100.00
2023-02-17T20:19:01.100Z,100.00
2023-02-17T20:21:31.604Z,100.00
2023-02-17T20:24:00.529Z,100.00
2023-02-17T20:26:31.603Z,100.00
2023-02-17T20:29:00.564Z,100.00
2023-02-17T20:31:29.222Z,100.00
2023-02-17T20:33:57.367Z,100.00
2023-02-17T20:36:25.224Z,100.00
2023-02-17T20:38:53.335Z,100.00
2023-02-17T20:41:23.021Z,98.93
2023-02-17T20:43:52.164Z,96.25
2023-02-17T20:46:28.412Z,96.69
2023-02-17T20:48:57.057Z,96.18
2023-02-17T20:51:25.139Z,98.03
2023-02-17T20:53:53.064Z,99.86
2023-02-17T20:56:23.286Z,100.00
2023-02-17T20:58:52.489Z,99.96
2023-02-17T21:01:20.571Z,100.00
2023-02-17T21:03:48.637Z,99.37
2023-02-17T21:06:29.518Z,96.03
2023-02-17T21:09:00.357Z,93.76
2023-02-17T21:11:30.058Z,91.77
2023-02-17T21:13:57.925Z,89.04
2023-02-17T21:16:31.021Z,83.74
2023-02-17T21:19:00.979Z,80.55
2023-02-17T21:21:30.136Z,78.80
2023-02-17T21:23:59.025Z,75.20
2023-02-17T21:26:27.808Z,72.48
2023-02-17T21:28:55.805Z,72.35
2023-02-17T21:31:27.845Z,72.22
2023-02-17T21:33:57.550Z,74.31
2023-02-17T21:36:26.986Z,76.53
2023-02-17T21:38:57.536Z,77.58
2023-02-17T21:41:27.665Z,78.24
2023-02-17T21:44:14.389Z,76.99
2023-02-17T21:46:43.449Z,76.40
2023-02-17T21:49:12.582Z,76.43
2023-02-17T21:51:41.117Z,75.04
2023-02-17T21:54:09.878Z,74.02
2023-02-17T21:56:38.760Z,71.00
2023-02-17T21:59:07.176Z,70.16
2023-02-17T22:01:35.633Z,70.67
2023-02-17T22:04:04.161Z,70.55
2023-02-17T22:06:35.584Z,70.73
2023-02-17T22:09:06.977Z,71.38
2023-02-17T22:11:38.354Z,72.50
2023-02-17T22:14:10.282Z,72.56
2023-02-17T22:16:39.408Z,72.18
2023-02-17T22:19:09.458Z,73.01
2023-02-17T22:21:38.519Z,72.59
2023-02-17T22:24:07.023Z,72.66
2023-02-17T22:26:35.122Z,73.41
2023-02-17T22:29:03.795Z,73.55
2023-02-17T22:31:32.996Z,73.79
2023-02-17T22:34:06.639Z,73.47
2023-02-17T22:36:36.671Z,73.90
2023-02-17T22:39:07.038Z,74.38
2023-02-17T22:41:35.892Z,75.14
2023-02-17T22:44:03.996Z,75.50
2023-02-17T22:46:32.428Z,76.16
2023-02-17T22:49:01.398Z,77.42
2023-02-17T22:51:34.357Z,76.99
2023-02-17T22:54:02.640Z,77.78
2023-02-17T22:56:30.909Z,78.72
2023-02-17T22:59:01.070Z,78.92
2023-02-17T23:01:31.274Z,79.18
2023-02-17T23:03:59.333Z,80.01
2023-02-17T23:06:31.924Z,80.41
2023-02-17T23:09:01.212Z,81.05
2023-02-17T23:11:51.417Z,81.25
2023-02-17T23:14:29.005Z,81.95
2023-02-17T23:17:02.404Z,82.60
2023-02-17T23:19:31.297Z,82.96
2023-02-17T23:22:06.649Z,83.74
2023-02-17T23:24:35.020Z,84.41
2023-02-17T23:27:03.920Z,84.85
2023-02-17T23:29:32.926Z,85.07
2023-02-17T23:32:01.579Z,85.25
2023-02-17T23:34:30.436Z,85.80
2023-02-17T23:36:59.094Z,85.36
2023-02-17T23:39:27.242Z,85.33
2023-02-17T23:41:55.237Z,85.26
2023-02-17T23:44:23.188Z,84.87
2023-02-17T23:46:51.356Z,84.93
2023-02-17T23:49:19.326Z,84.63
2023-02-17T23:51:47.346Z,84.35
2023-02-17T23:54:15.695Z,84.27
2023-02-17T23:56:43.936Z,83.64
2023-02-17T23:59:12.426Z,83.84
